Flight Track Log - Related Links

Times and Time Zones

All times are in EDT time to prevent confusion due to time zone crossing. See the UAL395 flight status page for this flight to view local times or setup timezone preferences in your user account.

Time Position Orientation Groundspeed Altitude Reporting Facility
EDT Latitude Longitude Course Direction KTS MPH feet Rate Location/Type
Fri 08:31:12 AM 29.9814 -95.3533 335° Northwest 135 155 800  Level Houston Center
Fri 08:31:49 AM 30.0075 -95.3622 344° North 152 175 1,700 2,152 Climbing Houston Center
Fri 08:32:44 AM 30.0528 -95.3761 345° North 188 216 4,100 2,516 Climbing Houston Center
Fri 08:33:22 AM 30.0903 -95.3886 344° North 193 222 5,600 2,485 Climbing Houston Center
Fri 08:34:00 AM 30.3587 -95.5548 334° Northwest  Level FlightAware Approximate
Fri 08:34:23 AM 30.1531 -95.4242 334° Northwest 241 277 8,200  Level Houston Center
Fri 08:35:00 AM 30.4544 -95.6080 334° Northwest  Level FlightAware Approximate
Fri 08:35:25 AM 30.2206 -95.4647 333° Northwest 265 305 10,500  Level Houston Center
Fri 08:36:00 AM 30.5508 -95.6595 335° Northwest  Level FlightAware Approximate
Fri 08:36:26 AM 30.3011 -95.5119 333° Northwest 304 350 11,500  Level Houston Center
Fri 08:37:27 AM 30.3922 -95.5661 333° Northwest 353 406 14,100 2,341 Climbing Houston Center
Fri 08:38:29 AM 30.4808 -95.6167 334° Northwest 357 411 16,300 1,854 Climbing Houston Center
Fri 08:39:30 AM 30.5733 -95.6725 333° Northwest 372 428 17,900 1,707 Climbing Houston Center
Fri 08:40:32 AM 30.6706 -95.7239 336° Northwest 382 440 19,800 1,707 Climbing Houston Center
Fri 08:41:33 AM 30.7750 -95.7803 335° Northwest 396 456 21,400 1,463 Climbing Houston Center
Fri 08:42:35 AM 30.8783 -95.8347 336° Northwest 406 467 22,800 1,463 Climbing Houston Center
Fri 08:43:36 AM 31.0047 -95.9025 335° Northwest 414 476 24,400 1,377 Climbing Houston Center
Fri 08:44:37 AM 31.1122 -95.9614 335° Northwest 423 487 25,600 1,030 Climbing Houston Center
Fri 08:45:15 AM 31.1739 -95.9856 341° North 412 474 26,100 1,041 Climbing Fort Worth Center
Fri 08:46:15 AM 31.2872 -96.0303 341° North 425 489 27,300 1,300 Climbing Fort Worth Center
Fri 08:47:15 AM 31.4047 -96.0772 341° North 432 497 28,700 1,250 Climbing Fort Worth Center
Fri 08:48:15 AM 31.5178 -96.1194 342° North 432 497 29,800 1,150 Climbing Fort Worth Center
Fri 08:49:15 AM 31.6331 -96.1642 342° North 427 491 31,000 1,300 Climbing Fort Worth Center
Fri 08:50:15 AM 31.7278 -96.2508 322° Northwest 396 456 32,400 1,350 Climbing Fort Worth Center
Fri 08:51:15 AM 31.7808 -96.3575 300° West 376 433 33,700 1,100 Climbing Fort Worth Center
Fri 08:52:15 AM 31.8319 -96.4597 300° West 371 427 34,600 850 Climbing Fort Worth Center
Fri 08:53:15 AM 31.8828 -96.5669 299° West 371 427 35,400 700 Climbing Fort Worth Center
Fri 08:54:15 AM 31.9333 -96.6667 301° West 371 427 36,000 300 Climbing Fort Worth Center
Fri 08:55:15 AM 31.9864 -96.7742 300° West 371 427 36,000  Level Fort Worth Center
Fri 08:56:15 AM 32.0411 -96.8817 301° West 371 427 36,000 50 Level Fort Worth Center
Fri 08:57:15 AM 32.0917 -96.9917 299° West 376 433 36,100 50 Climbing Fort Worth Center
Fri 08:58:15 AM 32.1483 -97.1017 301° West 376 433 36,100 -50 Level Fort Worth Center
Fri 08:59:15 AM 32.1986 -97.2097 299° West 376 433 36,000 -50 Descending Fort Worth Center
Fri 09:00:15 AM 32.2447 -97.3053 300° West 376 433 36,000  Level Fort Worth Center
Fri 09:01:15 AM 32.3031 -97.4256 300° West 376 433 36,000  Level Fort Worth Center
Fri 09:02:15 AM 32.3511 -97.5264 299° West 376 433 36,000 50 Level Fort Worth Center
Fri 09:03:15 AM 32.4094 -97.6472 300° West 376 433 36,100  Climbing Fort Worth Center
Fri 09:04:15 AM 32.4550 -97.7458 299° West 381 438 36,000 -50 Descending Fort Worth Center
Fri 09:05:15 AM 32.5153 -97.8642 301° West 381 438 36,000  Level Fort Worth Center
Fri 09:06:15 AM 32.5628 -97.9656 299° West 376 433 36,000  Level Fort Worth Center
Fri 09:07:15 AM 32.6206 -98.0844 300° West 376 433 36,000 50 Level Fort Worth Center
Fri 09:08:15 AM 32.6661 -98.1808 299° West 376 433 36,100  Climbing Fort Worth Center
Fri 09:09:15 AM 32.7217 -98.3000 299° West 376 433 36,000 -50 Descending Fort Worth Center
Fri 09:10:15 AM 32.7689 -98.3992 300° West 376 433 36,000  Level Fort Worth Center
Fri 09:11:15 AM 32.8181 -98.5036 299° West 369 425 36,000  Level Fort Worth Center
Fri 09:12:15 AM 32.8694 -98.6106 300° West 369 425 36,000  Level Fort Worth Center
Fri 09:13:15 AM 32.9206 -98.7178 300° West 369 425 36,000  Level Fort Worth Center
Fri 09:14:15 AM 32.9714 -98.8297 298° West 369 425 36,000  Level Fort Worth Center
Fri 09:15:15 AM 33.0225 -98.9372 300° West 369 425 36,000 50 Level Fort Worth Center
Fri 09:16:15 AM 33.0753 -99.0472 300° West 374 430 36,100  Climbing Fort Worth Center
Fri 09:17:15 AM 33.1261 -99.1547 299° West 374 430 36,000 -50 Descending Fort Worth Center
Fri 09:18:15 AM 33.1767 -99.2650 299° West 374 430 36,000  Level Fort Worth Center
Fri 09:19:15 AM 33.2272 -99.3753 299° West 374 430 36,000 50 Level Fort Worth Center
Fri 09:20:15 AM 33.2753 -99.4858 297° West 374 430 36,100  Climbing Fort Worth Center
Fri 09:21:15 AM 33.3258 -99.5914 300° West 369 425 36,000 -50 Descending Fort Worth Center
Fri 09:22:15 AM 33.3761 -99.6969 300° West 369 425 36,000  Level Fort Worth Center
Fri 09:23:15 AM 33.4242 -99.8053 298° West 369 425 36,000  Level Fort Worth Center
Fri 09:24:15 AM 33.4742 -99.9111 300° West 369 425 36,000  Level Fort Worth Center
Fri 09:25:15 AM 33.5200 -100.0172 297° West 369 425 36,000  Level Fort Worth Center
Fri 09:26:15 AM 33.5681 -100.1233 299° West 369 425 36,000 50 Level Fort Worth Center
Fri 09:27:15 AM 33.6156 -100.2319 298° West 369 425 36,100 50 Climbing Fort Worth Center
Fri 09:28:15 AM 33.6653 -100.3433 298° West 369 425 36,100  Level Fort Worth Center
Fri 09:29:15 AM 33.7150 -100.4500 299° West 369 425 36,100 -50 Level Fort Worth Center
Fri 09:30:15 AM 33.7644 -100.5592 299° West 369 425 36,000 -50 Descending Fort Worth Center
Fri 09:31:15 AM 33.8094 -100.6681 296° West 374 430 36,000  Level Fort Worth Center
Fri 09:32:15 AM 33.8589 -100.7750 299° West 374 430 36,000  Level Fort Worth Center
Fri 09:33:15 AM 33.9061 -100.8819 298° West 369 425 36,000  Level Fort Worth Center
Fri 09:34:15 AM 33.9550 -100.9942 298° West 374 430 36,000 50 Level Fort Worth Center
Fri 09:35:15 AM 34.0100 -101.1192 298° West 383 441 36,100  Climbing Fort Worth Center
Fri 09:36:15 AM 34.0550 -101.2189 299° West 375 432 36,000 -50 Descending Fort Worth Center
Fri 09:37:15 AM 34.1056 -101.3389 297° West 375 432 36,000  Level Fort Worth Center
Fri 09:38:15 AM 34.1503 -101.4414 298° West 375 432 36,000  Level Fort Worth Center
Fri 09:39:15 AM 34.2006 -101.5617 297° West 369 425 36,000  Level Fort Worth Center
Fri 09:40:15 AM 34.2472 -101.6644 299° West 378 435 36,000 32 Level Fort Worth Center
Fri 09:42:23 AM 34.3514 -101.9075 297° West 382 440 36,100  Climbing Albuquerque Center
Fri 09:43:24 AM 34.4003 -102.0222 297° West 383 441 36,000 -49 Descending Albuquerque Center
Fri 09:44:25 AM 34.4489 -102.1367 297° West 382 440 36,000 49 Level Albuquerque Center
Fri 09:45:26 AM 34.4972 -102.2511 297° West 381 438 36,100  Climbing Albuquerque Center
Fri 09:46:28 AM 34.5450 -102.3644 297° West 379 436 36,000 -49 Descending Albuquerque Center
Fri 09:47:29 AM 34.5936 -102.4767 298° West 376 433 36,000  Level Albuquerque Center
Fri 09:48:30 AM 34.6408 -102.5911 297° West 378 435 36,000  Level Albuquerque Center
Fri 09:49:31 AM 34.6919 -102.7139 297° West 383 441 36,000 49 Level Albuquerque Center
Fri 09:50:32 AM 34.7481 -102.8508 297° West 385 443 36,100  Climbing Albuquerque Center
Fri 09:51:33 AM 34.7989 -102.9683 298° West 388 447 36,000 -49 Descending Albuquerque Center
Fri 09:52:34 AM 34.8481 -103.0872 297° West 389 448 36,000  Level Albuquerque Center
Fri 09:53:36 AM 34.8967 -103.2064 296° West 390 449 36,000  Level Albuquerque Center
Fri 09:54:37 AM 34.9450 -103.3250 296° West 389 448 36,000  Level Albuquerque Center
Fri 09:55:38 AM 34.9950 -103.4431 297° West 389 448 36,000  Level Albuquerque Center
Fri 09:56:39 AM 35.0425 -103.5625 296° West 389 448 36,000  Level Albuquerque Center
Fri 09:57:40 AM 35.0914 -103.6808 297° West 388 447 36,000  Level Albuquerque Center
Fri 09:58:42 AM 35.1394 -103.8000 296° West 388 447 36,000  Level Albuquerque Center
Fri 09:59:43 AM 35.1919 -103.9292 296° West 388 447 36,000  Level Albuquerque Center
Fri 10:00:44 AM 35.2419 -104.0522 296° West 400 460 36,000 49 Level Albuquerque Center
Fri 10:01:46 AM 35.2906 -104.1722 296° West 394 453 36,100 49 Climbing Albuquerque Center
Fri 10:02:47 AM 35.3400 -104.2992 296° West 398 458 36,100 -49 Level Albuquerque Center
Fri 10:03:48 AM 35.3878 -104.4214 296° West 397 457 36,000 -49 Descending Albuquerque Center
Fri 10:04:50 AM 35.4356 -104.5425 296° West 394 453 36,000  Level Albuquerque Center
Fri 10:05:51 AM 35.4839 -104.6644 296° West 394 453 36,000  Level Albuquerque Center
Fri 10:06:53 AM 35.5325 -104.7867 296° West 396 456 36,000 49 Level Albuquerque Center
Fri 10:07:54 AM 35.5814 -104.9114 296° West 401 461 36,100 49 Climbing Albuquerque Center
Fri 10:08:56 AM 35.6286 -105.0367 295° West 401 461 36,100 -49 Level Albuquerque Center
Fri 10:09:57 AM 35.6786 -105.1606 296° West 401 461 36,000 -49 Descending Albuquerque Center
Fri 10:10:59 AM 35.7250 -105.2853 295° West 399 459 36,000  Level Albuquerque Center
Fri 10:12:00 AM 35.7739 -105.4103 296° West 401 461 36,000  Level Albuquerque Center
Fri 10:13:02 AM 35.8311 -105.5561 296° West 402 463 36,000  Level Albuquerque Center
Fri 10:14:04 AM 35.8781 -105.6789 295° West 402 463 36,000  Level Albuquerque Center
Fri 10:15:05 AM 35.9256 -105.8028 295° West 402 463 36,000  Level Albuquerque Center
Fri 10:16:07 AM 35.9725 -105.9303 294° West 407 468 36,000  Level Albuquerque Center
Fri 10:17:08 AM 35.9986 -106.0683 283° West 419 482 36,000 49 Level Albuquerque Center
Fri 10:18:10 AM 36.0011 -106.2147 271° West 428 493 36,100  Climbing Albuquerque Center
Fri 10:19:12 AM 36.0033 -106.3606 271° West 428 493 36,000 -49 Descending Albuquerque Center
Fri 10:20:13 AM 36.0033 -106.5047 270° West 424 488 36,000  Level Albuquerque Center
Fri 10:21:15 AM 36.0039 -106.6803 270° West 427 491 36,000 48 Level Albuquerque Center
Fri 10:22:17 AM 36.0047 -106.8247 270° West 425 489 36,100  Climbing Albuquerque Center
Fri 10:23:18 AM 36.0044 -106.9689 270° West 422 486 36,000 -49 Descending Albuquerque Center
Fri 10:24:20 AM 36.0050 -107.1133 270° West 423 487 36,000  Level Albuquerque Center
Fri 10:25:22 AM 36.0036 -107.2722 269° West 423 487 36,000  Level Albuquerque Center
Fri 10:26:24 AM 36.0047 -107.4114 271° West 424 488 36,000  Level Albuquerque Center
Fri 10:27:25 AM 36.0036 -107.5744 270° West 424 488 36,000  Level Albuquerque Center
Fri 10:28:27 AM 36.0019 -107.7158 269° West 429 494 36,000  Level Albuquerque Center
Fri 10:29:29 AM 36.0022 -107.8789 270° West 426 490 36,000  Level Albuquerque Center
Fri 10:30:31 AM 36.0017 -108.0186 270° West 426 490 36,000 49 Level Albuquerque Center
Fri 10:31:32 AM 36.0092 -108.1842 273° West 430 495 36,100  Climbing Albuquerque Center
Fri 10:32:34 AM 36.0167 -108.3242 274° West 429 494 36,000 -48 Descending Albuquerque Center
Fri 10:33:36 AM 36.0236 -108.4653 274° West 429 494 36,000  Level Albuquerque Center
Fri 10:34:38 AM 36.0303 -108.6347 273° West 434 499 36,000  Level Albuquerque Center
Fri 10:35:40 AM 36.0364 -108.7825 273° West 434 499 36,000  Level Albuquerque Center
Fri 10:36:41 AM 36.0433 -108.9294 273° West 431 496 36,000  Level Albuquerque Center
Fri 10:37:15 AM 36.0467 -109.0206 273° West 438 504 36,000  Level Denver Center
Fri 10:38:17 AM 36.0531 -109.1625 273° West 434 499 36,000  Level Denver Center
Fri 10:38:45 AM 36.0564 -109.2322 273° West 429 494 36,000  Level Albuquerque Center
Fri 10:39:47 AM 36.0628 -109.3994 273° West 433 498 36,000 62 Level Albuquerque Center
Fri 10:40:22 AM 36.0653 -109.4717 272° West 437 503 36,100  Climbing Denver Center
Fri 10:41:23 AM 36.0719 -109.6383 273° West 435 501 36,000 -49 Descending Denver Center
Fri 10:42:25 AM 36.0783 -109.7822 273° West 437 503 36,000 -88 Level Denver Center
Fri 10:43:40 AM 36.0850 -109.9750 273° West 440 506 35,800 -482 Descending Denver Center
Fri 10:44:42 AM 36.0897 -110.1192 272° West 439 505 34,900 -871 Descending Denver Center
Fri 10:45:44 AM 36.0950 -110.2953 272° West 440 506 34,000 -435 Descending Denver Center
Fri 10:46:46 AM 36.0986 -110.4492 272° West 447 514 34,000  Level Denver Center
Fri 10:47:48 AM 36.1039 -110.6025 272° West 448 516 34,000  Level Denver Center
Fri 10:48:50 AM 36.1083 -110.7558 272° West 446 513 34,000  Level Denver Center
Fri 10:49:52 AM 36.1125 -110.9100 272° West 449 517 34,000 -97 Level Denver Center
Fri 10:50:54 AM 36.1161 -111.0647 272° West 450 518 33,800 -677 Descending Denver Center
Fri 10:51:56 AM 36.1178 -111.2506 271° West 451 519 32,600 -1,065 Descending Denver Center
Fri 10:52:58 AM 36.0925 -111.4067 259° West 459 528 31,600 -968 Descending Denver Center
Fri 10:54:00 AM 36.0608 -111.5608 256° West 463 533 30,600 -774 Descending Denver Center
Fri 10:55:02 AM 36.0269 -111.7142 255° West 463 533 30,000 -387 Descending Denver Center
Fri 10:56:04 AM 35.9953 -111.8672 256° West 462 532 29,800 -453 Descending Denver Center
Fri 10:56:48 AM 35.9711 -111.9767 255° West 458 527 29,200 -814 Descending Los Angeles Center
Fri 10:58:02 AM 35.9389 -112.1253 255° West 452 520 28,200 -1,059 Descending Los Angeles Center
Fri 10:59:04 AM 35.8942 -112.3333 255° West 450 518 26,800 -1,113 Descending Los Angeles Center
Fri 11:00:06 AM 35.8622 -112.4803 255° West 448 516 25,900 -927 Descending Los Angeles Center
Fri 11:01:07 AM 35.8303 -112.6250 255° West 441 507 24,900 -927 Descending Los Angeles Center
Fri 11:02:09 AM 35.7992 -112.7667 255° West 435 501 24,000 -435 Descending Los Angeles Center
Fri 11:03:11 AM 35.7678 -112.9094 255° West 436 502 24,000 -484 Level Los Angeles Center
Fri 11:04:13 AM 35.7300 -113.0781 255° West 431 496 23,000 -829 Descending Los Angeles Center
Fri 11:05:14 AM 35.7053 -113.1900 255° West 428 493 22,300 -488 Descending Los Angeles Center
Fri 11:06:16 AM 35.6700 -113.3567 255° West 425 489 22,000 -145 Descending Los Angeles Center
Fri 11:07:18 AM 35.6806 -113.5003 275° West 422 486 22,000 -290 Level Los Angeles Center
Fri 11:08:20 AM 35.6906 -113.6428 275° West 422 486 21,400 -726 Descending Los Angeles Center
Fri 11:09:22 AM 35.7017 -113.7844 276° West 421 484 20,500 -1,790 Descending Los Angeles Center
Fri 11:10:24 AM 35.7117 -113.9569 274° West 411 473 17,700 -2,688 Descending Los Angeles Center
Fri 11:11:27 AM 35.7217 -114.0944 275° West 405 466 14,900 -2,554 Descending Los Angeles Center
Fri 11:12:05 AM 35.7311 -114.1889 277° West 402 463 13,400 -1,770 Descending Los Angeles Center
Fri 11:12:28 AM 35.7306 -114.2261 269° West 394 453 13,100 -980 Descending Los Angeles Center
Fri 11:12:54 AM 35.7369 -114.2822 278° West 372 428 12,600 -968 Descending Los Angeles Center
Fri 11:13:30 AM 35.7392 -114.3436 273° West 359 413 12,100 -537 Descending Los Angeles Center
Fri 11:14:01 AM 35.7686 -114.3939 306° West 312 359 12,000 -387 Descending Los Angeles Center
Fri 11:14:32 AM 35.7953 -114.4072 338° Northwest 305 351 11,700 -590 Descending Los Angeles Center
Fri 11:15:02 AM 35.8444 -114.4319 338° Northwest 297 342 11,400 -484 Descending Los Angeles Center
Fri 11:15:34 AM 35.8725 -114.4433 342° North 298 343 11,200 -590 Descending Los Angeles Center
Fri 11:16:03 AM 35.9214 -114.4669 339° North 296 341 10,800 -677 Descending Los Angeles Center
Fri 11:16:36 AM 35.9619 -114.4856 340° North 289 333 10,500 -689 Descending Los Angeles Center
Fri 11:17:04 AM 35.9914 -114.4992 339° North 270 311 10,100 -774 Descending Los Angeles Center
Fri 11:17:38 AM 36.0197 -114.5306 318° Northwest 270 311 9,700 -873 Descending Los Angeles Center
Fri 11:17:59 AM 36.0278 -114.5561 291° West 253 291 9,300 -1,185 Descending Los Angeles Center
Fri 11:18:59 AM 36.0494 -114.6339 289° West 242 278 8,100 -757 Descending Los Angeles Center
Fri 11:19:42 AM 36.0603 -114.6703 290° West 242 278 8,000 -492 Descending Los Angeles Center
Fri 11:20:00 AM 36.0728 -114.7194 287° West 243 280 7,600 -871 Descending Los Angeles Center
Fri 11:20:44 AM 36.0775 -114.7667 277° West 240 276 7,100 -396 Descending Los Angeles Center
Fri 11:21:46 AM 36.0747 -114.8444 267° West 233 268 6,900 -194 Descending Los Angeles Center

Login

Don't have an account? Register now (free) for customized features, flight alerts, and more!